sensor_id;sensor_type;location;lat;lon;timestamp;temperature;humidity
50544;DHT22;41176;44.032;20.900;2022-08-23T00:00:47;20.30;99.90
50544;DHT22;41176;44.032;20.900;2022-08-23T00:03:13;20.30;99.90
50544;DHT22;41176;44.032;20.900;2022-08-23T00:05:39;20.40;99.90
50544;DHT22;41176;44.032;20.900;2022-08-23T00:08:05;20.50;99.90
50544;DHT22;41176;44.032;20.900;2022-08-23T00:10:31;20.50;99.90
50544;DHT22;41176;44.032;20.900;2022-08-23T00:12:57;20.60;99.90
50544;DHT22;41176;44.032;20.900;2022-08-23T00:15:23;20.60;99.90
50544;DHT22;41176;44.032;20.900;2022-08-23T00:17:49;20.50;99.90
50544;DHT22;41176;44.032;20.900;2022-08-23T00:20:17;20.50;99.90
50544;DHT22;41176;44.032;20.900;2022-08-23T00:22:44;20.40;99.90
50544;DHT22;41176;44.032;20.900;2022-08-23T00:25:11;20.50;99.90
50544;DHT22;41176;44.032;20.900;2022-08-23T00:27:38;20.50;99.90
50544;DHT22;41176;44.032;20.900;2022-08-23T00:30:08;20.50;99.90
50544;DHT22;41176;44.032;20.900;2022-08-23T00:32:36;20.50;99.90
50544;DHT22;41176;44.032;20.900;2022-08-23T00:35:04;20.50;99.90
50544;DHT22;41176;44.032;20.900;2022-08-23T00:37:31;20.40;99.90
50544;DHT22;41176;44.032;20.900;2022-08-23T00:39:57;20.30;99.90
50544;DHT22;41176;44.032;20.900;2022-08-23T00:42:43;20.30;99.90
50544;DHT22;41176;44.032;20.900;2022-08-23T00:48:54;20.40;99.90
50544;DHT22;41176;44.032;20.900;2022-08-23T00:51:51;20.40;99.90
50544;DHT22;41176;44.032;20.900;2022-08-23T00:54:22;20.40;99.90
50544;DHT22;41176;44.032;20.900;2022-08-23T00:56:50;20.40;99.90
50544;DHT22;41176;44.032;20.900;2022-08-23T00:59:16;20.40;99.90
50544;DHT22;41176;44.032;20.900;2022-08-23T01:01:42;20.30;99.90
50544;DHT22;41176;44.032;20.900;2022-08-23T01:04:09;20.30;99.90
50544;DHT22;41176;44.032;20.900;2022-08-23T01:06:54;20.30;99.90
50544;DHT22;41176;44.032;20.900;2022-08-23T01:09:23;20.30;99.90
50544;DHT22;41176;44.032;20.900;2022-08-23T01:11:59;20.40;99.90
50544;DHT22;41176;44.032;20.900;2022-08-23T01:14:39;20.40;99.90
50544;DHT22;41176;44.032;20.900;2022-08-23T01:17:16;20.40;99.90
50544;DHT22;41176;44.032;20.900;2022-08-23T01:19:48;20.40;99.90
50544;DHT22;41176;44.032;20.900;2022-08-23T01:22:36;20.40;99.90
50544;DHT22;41176;44.032;20.900;2022-08-23T01:25:06;20.40;99.90
50544;DHT22;41176;44.032;20.900;2022-08-23T01:27:32;20.40;99.90
50544;DHT22;41176;44.032;20.900;2022-08-23T01:29:58;20.30;99.90
50544;DHT22;41176;44.032;20.900;2022-08-23T01:32:24;20.30;99.90
50544;DHT22;41176;44.032;20.900;2022-08-23T01:34:50;20.30;99.90
50544;DHT22;41176;44.032;20.900;2022-08-23T01:37:18;20.30;99.90
50544;DHT22;41176;44.032;20.900;2022-08-23T01:39:44;20.30;99.90
50544;DHT22;41176;44.032;20.900;2022-08-23T01:42:10;20.30;99.90
50544;DHT22;41176;44.032;20.900;2022-08-23T01:44:37;20.20;99.90
50544;DHT22;41176;44.032;20.900;2022-08-23T01:47:02;20.00;99.90
50544;DHT22;41176;44.032;20.900;2022-08-23T01:49:28;20.00;99.90
50544;DHT22;41176;44.032;20.900;2022-08-23T01:51:54;20.10;99.90
50544;DHT22;41176;44.032;20.900;2022-08-23T01:54:20;20.10;99.90
50544;DHT22;41176;44.032;20.900;2022-08-23T01:56:46;20.20;99.90
50544;DHT22;41176;44.032;20.900;2022-08-23T01:59:12;20.20;99.90
50544;DHT22;41176;44.032;20.900;2022-08-23T02:01:38;20.20;99.90
50544;DHT22;41176;44.032;20.900;2022-08-23T02:04:04;20.20;99.90
50544;DHT22;41176;44.032;20.900;2022-08-23T02:06:30;20.20;99.90
50544;DHT22;41176;44.032;20.900;2022-08-23T02:08:56;20.30;99.90
50544;DHT22;41176;44.032;20.900;2022-08-23T02:11:32;20.20;99.90
50544;DHT22;41176;44.032;20.900;2022-08-23T02:14:00;20.20;99.90
50544;DHT22;41176;44.032;20.900;2022-08-23T02:16:31;20.20;99.90
50544;DHT22;41176;44.032;20.900;2022-08-23T02:18:58;20.20;99.90
50544;DHT22;41176;44.032;20.900;2022-08-23T02:21:27;20.20;99.90
50544;DHT22;41176;44.032;20.900;2022-08-23T02:23:57;20.20;99.90
50544;DHT22;41176;44.032;20.900;2022-08-23T02:26:23;20.20;99.90
50544;DHT22;41176;44.032;20.900;2022-08-23T02:28:52;20.30;99.90
50544;DHT22;41176;44.032;20.900;2022-08-23T02:31:19;20.30;99.90
50544;DHT22;41176;44.032;20.900;2022-08-23T02:33:45;20.30;99.90
50544;DHT22;41176;44.032;20.900;2022-08-23T02:36:11;20.30;99.90
50544;DHT22;41176;44.032;20.900;2022-08-23T02:38:38;20.30;99.90
50544;DHT22;41176;44.032;20.900;2022-08-23T02:41:03;20.30;99.90
50544;DHT22;41176;44.032;20.900;2022-08-23T02:43:29;20.40;99.90
50544;DHT22;41176;44.032;20.900;2022-08-23T02:45:55;20.30;99.90
50544;DHT22;41176;44.032;20.900;2022-08-23T02:48:21;20.30;99.90
50544;DHT22;41176;44.032;20.900;2022-08-23T02:50:47;20.30;99.90
50544;DHT22;41176;44.032;20.900;2022-08-23T02:53:15;20.30;99.90
50544;DHT22;41176;44.032;20.900;2022-08-23T02:55:44;20.20;99.90
50544;DHT22;41176;44.032;20.900;2022-08-23T02:58:10;20.30;99.90
50544;DHT22;41176;44.032;20.900;2022-08-23T03:00:36;20.20;99.90
50544;DHT22;41176;44.032;20.900;2022-08-23T03:03:04;20.20;99.90
50544;DHT22;41176;44.032;20.900;2022-08-23T03:05:30;20.20;99.90
50544;DHT22;41176;44.032;20.900;2022-08-23T03:07:57;20.20;99.90
50544;DHT22;41176;44.032;20.900;2022-08-23T03:10:22;20.20;99.90
50544;DHT22;41176;44.032;20.900;2022-08-23T03:12:48;20.20;99.90
50544;DHT22;41176;44.032;20.900;2022-08-23T03:15:14;20.20;99.90
50544;DHT22;41176;44.032;20.900;2022-08-23T03:17:40;20.20;99.90
50544;DHT22;41176;44.032;20.900;2022-08-23T03:20:07;20.10;99.90
50544;DHT22;41176;44.032;20.900;2022-08-23T03:22:33;20.10;99.90
50544;DHT22;41176;44.032;20.900;2022-08-23T03:24:59;20.10;99.90
50544;DHT22;41176;44.032;20.900;2022-08-23T03:27:26;20.10;99.90
50544;DHT22;41176;44.032;20.900;2022-08-23T03:29:51;20.10;99.90
50544;DHT22;41176;44.032;20.900;2022-08-23T03:32:17;20.00;99.90
50544;DHT22;41176;44.032;20.900;2022-08-23T03:34:43;20.00;99.90
50544;DHT22;41176;44.032;20.900;2022-08-23T03:37:09;20.10;99.90
50544;DHT22;41176;44.032;20.900;2022-08-23T03:39:35;20.00;99.90
50544;DHT22;41176;44.032;20.900;2022-08-23T03:42:01;20.00;99.90
50544;DHT22;41176;44.032;20.900;2022-08-23T03:44:27;20.10;99.90
50544;DHT22;41176;44.032;20.900;2022-08-23T03:46:52;20.00;99.90
50544;DHT22;41176;44.032;20.900;2022-08-23T03:49:18;20.00;99.90
50544;DHT22;41176;44.032;20.900;2022-08-23T03:51:44;20.10;99.90
50544;DHT22;41176;44.032;20.900;2022-08-23T03:54:10;20.10;99.90
50544;DHT22;41176;44.032;20.900;2022-08-23T03:56:38;20.10;99.90
50544;DHT22;41176;44.032;20.900;2022-08-23T03:59:09;20.00;99.90
50544;DHT22;41176;44.032;20.900;2022-08-23T04:01:36;20.00;99.90
50544;DHT22;41176;44.032;20.900;2022-08-23T04:04:02;20.00;99.90
50544;DHT22;41176;44.032;20.900;2022-08-23T04:06:28;20.10;99.90
50544;DHT22;41176;44.032;20.900;2022-08-23T04:08:54;20.10;99.90
50544;DHT22;41176;44.032;20.900;2022-08-23T04:11:21;20.10;99.90
50544;DHT22;41176;44.032;20.900;2022-08-23T04:13:47;20.10;99.90
50544;DHT22;41176;44.032;20.900;2022-08-23T04:16:13;20.10;99.90
50544;DHT22;41176;44.032;20.900;2022-08-23T04:18:39;20.10;99.90
50544;DHT22;41176;44.032;20.900;2022-08-23T04:21:08;20.00;99.90
50544;DHT22;41176;44.032;20.900;2022-08-23T04:23:38;19.90;99.90
50544;DHT22;41176;44.032;20.900;2022-08-23T04:26:05;19.90;99.90
50544;DHT22;41176;44.032;20.900;2022-08-23T04:28:32;19.90;99.90
50544;DHT22;41176;44.032;20.900;2022-08-23T04:30:58;19.90;99.90
50544;DHT22;41176;44.032;20.900;2022-08-23T04:33:28;19.80;99.90
50544;DHT22;41176;44.032;20.900;2022-08-23T04:35:57;19.70;99.90
50544;DHT22;41176;44.032;20.900;2022-08-23T04:38:23;19.80;99.90
50544;DHT22;41176;44.032;20.900;2022-08-23T04:40:48;19.80;99.90
50544;DHT22;41176;44.032;20.900;2022-08-23T04:43:32;19.80;99.90
50544;DHT22;41176;44.032;20.900;2022-08-23T04:45:58;19.80;99.90
50544;DHT22;41176;44.032;20.900;2022-08-23T04:48:25;19.90;99.90
50544;DHT22;41176;44.032;20.900;2022-08-23T04:50:50;19.90;99.90
50544;DHT22;41176;44.032;20.900;2022-08-23T04:53:17;19.90;99.90
50544;DHT22;41176;44.032;20.900;2022-08-23T04:55:42;19.90;99.90
50544;DHT22;41176;44.032;20.900;2022-08-23T04:58:08;20.00;99.90
50544;DHT22;41176;44.032;20.900;2022-08-23T05:00:34;19.90;99.90
50544;DHT22;41176;44.032;20.900;2022-08-23T05:03:00;19.90;99.90
50544;DHT22;41176;44.032;20.900;2022-08-23T05:05:26;19.90;99.90
50544;DHT22;41176;44.032;20.900;2022-08-23T05:07:52;20.00;99.90
50544;DHT22;41176;44.032;20.900;2022-08-23T05:10:17;20.00;99.90
50544;DHT22;41176;44.032;20.900;2022-08-23T05:12:43;20.00;99.90
50544;DHT22;41176;44.032;20.900;2022-08-23T05:15:10;19.90;99.90
50544;DHT22;41176;44.032;20.900;2022-08-23T05:17:36;19.90;99.90
50544;DHT22;41176;44.032;20.900;2022-08-23T05:20:04;19.90;99.90
50544;DHT22;41176;44.032;20.900;2022-08-23T05:22:39;19.90;99.90
50544;DHT22;41176;44.032;20.900;2022-08-23T05:25:06;19.80;99.90
50544;DHT22;41176;44.032;20.900;2022-08-23T05:27:32;19.80;99.90
50544;DHT22;41176;44.032;20.900;2022-08-23T05:29:58;19.90;99.90
50544;DHT22;41176;44.032;20.900;2022-08-23T05:32:24;19.80;99.90
50544;DHT22;41176;44.032;20.900;2022-08-23T05:34:49;19.90;99.90
50544;DHT22;41176;44.032;20.900;2022-08-23T05:37:16;19.90;99.90
50544;DHT22;41176;44.032;20.900;2022-08-23T05:39:42;19.90;99.90
50544;DHT22;41176;44.032;20.900;2022-08-23T05:42:11;19.90;99.90
50544;DHT22;41176;44.032;20.900;2022-08-23T05:44:37;19.90;99.90
50544;DHT22;41176;44.032;20.900;2022-08-23T05:47:04;19.90;99.90
50544;DHT22;41176;44.032;20.900;2022-08-23T05:49:31;19.90;99.90
50544;DHT22;41176;44.032;20.900;2022-08-23T05:51:57;19.90;99.90
50544;DHT22;41176;44.032;20.900;2022-08-23T05:54:23;19.90;99.90
50544;DHT22;41176;44.032;20.900;2022-08-23T05:56:49;19.90;99.90
50544;DHT22;41176;44.032;20.900;2022-08-23T05:59:15;19.90;99.90
50544;DHT22;41176;44.032;20.900;2022-08-23T06:01:42;19.90;99.90
50544;DHT22;41176;44.032;20.900;2022-08-23T06:04:10;19.90;99.90
50544;DHT22;41176;44.032;20.900;2022-08-23T06:06:38;19.80;99.90
50544;DHT22;41176;44.032;20.900;2022-08-23T06:09:05;19.80;99.90
50544;DHT22;41176;44.032;20.900;2022-08-23T06:11:33;19.80;99.90
50544;DHT22;41176;44.032;20.900;2022-08-23T06:14:01;19.80;99.90
50544;DHT22;41176;44.032;20.900;2022-08-23T06:16:30;19.80;99.90
50544;DHT22;41176;44.032;20.900;2022-08-23T06:18:57;19.90;99.90
50544;DHT22;41176;44.032;20.900;2022-08-23T06:21:26;19.70;99.90
50544;DHT22;41176;44.032;20.900;2022-08-23T06:23:52;19.70;99.90
50544;DHT22;41176;44.032;20.900;2022-08-23T06:26:33;19.70;99.90
50544;DHT22;41176;44.032;20.900;2022-08-23T06:29:02;19.70;99.90
50544;DHT22;41176;44.032;20.900;2022-08-23T06:31:29;19.70;99.90
50544;DHT22;41176;44.032;20.900;2022-08-23T06:34:23;19.70;99.90
50544;DHT22;41176;44.032;20.900;2022-08-23T06:36:57;19.70;99.90
50544;DHT22;41176;44.032;20.900;2022-08-23T06:39:27;19.70;99.90
50544;DHT22;41176;44.032;20.900;2022-08-23T06:42:01;19.60;99.90
50544;DHT22;41176;44.032;20.900;2022-08-23T06:44:28;19.60;99.90
50544;DHT22;41176;44.032;20.900;2022-08-23T06:46:53;19.50;99.90
50544;DHT22;41176;44.032;20.900;2022-08-23T06:49:21;19.50;99.90
50544;DHT22;41176;44.032;20.900;2022-08-23T06:51:50;19.50;99.90
50544;DHT22;41176;44.032;20.900;2022-08-23T06:54:19;19.60;99.90
50544;DHT22;41176;44.032;20.900;2022-08-23T06:56:46;19.60;99.90
50544;DHT22;41176;44.032;20.900;2022-08-23T06:59:12;19.70;99.90
50544;DHT22;41176;44.032;20.900;2022-08-23T07:01:46;19.70;99.90
50544;DHT22;41176;44.032;20.900;2022-08-23T07:04:14;19.70;99.90
50544;DHT22;41176;44.032;20.900;2022-08-23T07:06:40;19.70;99.90
50544;DHT22;41176;44.032;20.900;2022-08-23T07:09:06;19.70;99.90
50544;DHT22;41176;44.032;20.900;2022-08-23T07:11:32;19.70;99.90
50544;DHT22;41176;44.032;20.900;2022-08-23T07:14:00;19.70;99.90
50544;DHT22;41176;44.032;20.900;2022-08-23T07:16:50;19.70;99.90
50544;DHT22;41176;44.032;20.900;2022-08-23T07:19:18;19.70;99.90
50544;DHT22;41176;44.032;20.900;2022-08-23T07:21:45;19.80;99.90
50544;DHT22;41176;44.032;20.900;2022-08-23T07:24:11;19.80;99.90
50544;DHT22;41176;44.032;20.900;2022-08-23T07:26:39;19.80;99.90
50544;DHT22;41176;44.032;20.900;2022-08-23T07:29:13;19.80;99.90
50544;DHT22;41176;44.032;20.900;2022-08-23T07:31:42;19.80;99.90
50544;DHT22;41176;44.032;20.900;2022-08-23T07:34:09;19.90;99.90
50544;DHT22;41176;44.032;20.900;2022-08-23T07:36:36;19.90;99.90
50544;DHT22;41176;44.032;20.900;2022-08-23T07:39:20;19.90;99.90
50544;DHT22;41176;44.032;20.900;2022-08-23T07:41:47;20.00;99.90
50544;DHT22;41176;44.032;20.900;2022-08-23T07:44:13;20.10;99.90
50544;DHT22;41176;44.032;20.900;2022-08-23T07:46:41;20.20;99.90
50544;DHT22;41176;44.032;20.900;2022-08-23T07:49:08;20.30;99.90
50544;DHT22;41176;44.032;20.900;2022-08-23T07:51:35;20.20;99.90
50544;DHT22;41176;44.032;20.900;2022-08-23T07:54:03;20.20;99.90
50544;DHT22;41176;44.032;20.900;2022-08-23T07:56:29;20.30;99.90
50544;DHT22;41176;44.032;20.900;2022-08-23T07:58:55;20.50;99.90
50544;DHT22;41176;44.032;20.900;2022-08-23T08:01:24;20.60;99.90
50544;DHT22;41176;44.032;20.900;2022-08-23T08:03:52;20.50;99.90
50544;DHT22;41176;44.032;20.900;2022-08-23T08:06:45;20.50;99.90
50544;DHT22;41176;44.032;20.900;2022-08-23T08:09:10;20.50;99.90
50544;DHT22;41176;44.032;20.900;2022-08-23T08:11:40;20.50;99.90
50544;DHT22;41176;44.032;20.900;2022-08-23T08:14:07;20.40;99.90
50544;DHT22;41176;44.032;20.900;2022-08-23T08:16:40;20.50;99.90
50544;DHT22;41176;44.032;20.900;2022-08-23T08:19:08;20.50;99.90
50544;DHT22;41176;44.032;20.900;2022-08-23T08:21:35;20.60;99.90
50544;DHT22;41176;44.032;20.900;2022-08-23T08:24:02;20.70;99.90
50544;DHT22;41176;44.032;20.900;2022-08-23T08:26:29;20.70;99.90
50544;DHT22;41176;44.032;20.900;2022-08-23T08:28:55;20.70;99.90
50544;DHT22;41176;44.032;20.900;2022-08-23T08:31:23;20.70;99.90
50544;DHT22;41176;44.032;20.900;2022-08-23T08:33:49;20.70;99.90
50544;DHT22;41176;44.032;20.900;2022-08-23T08:36:46;20.70;99.90
50544;DHT22;41176;44.032;20.900;2022-08-23T08:39:17;20.80;99.90
50544;DHT22;41176;44.032;20.900;2022-08-23T08:47:25;20.80;99.90
50544;DHT22;41176;44.032;20.900;2022-08-23T08:50:08;20.70;99.90
50544;DHT22;41176;44.032;20.900;2022-08-23T08:52:39;20.70;99.90
50544;DHT22;41176;44.032;20.900;2022-08-23T08:55:12;20.60;99.90
50544;DHT22;41176;44.032;20.900;2022-08-23T08:57:41;20.60;99.90
50544;DHT22;41176;44.032;20.900;2022-08-23T09:00:18;20.70;99.90
50544;DHT22;41176;44.032;20.900;2022-08-23T09:02:44;20.80;99.90
50544;DHT22;41176;44.032;20.900;2022-08-23T09:05:17;20.80;99.90
50544;DHT22;41176;44.032;20.900;2022-08-23T09:18:34;20.70;99.90
50544;DHT22;41176;44.032;20.900;2022-08-23T09:21:02;20.70;99.90
50544;DHT22;41176;44.032;20.900;2022-08-23T09:23:41;20.70;99.90
50544;DHT22;41176;44.032;20.900;2022-08-23T09:26:22;20.80;99.90
50544;DHT22;41176;44.032;20.900;2022-08-23T09:28:58;20.80;99.90
50544;DHT22;41176;44.032;20.900;2022-08-23T09:31:44;20.80;99.90
50544;DHT22;41176;44.032;20.900;2022-08-23T09:34:39;20.80;99.90
50544;DHT22;41176;44.032;20.900;2022-08-23T09:37:15;20.90;99.90
50544;DHT22;41176;44.032;20.900;2022-08-23T09:39:45;21.00;99.90
50544;DHT22;41176;44.032;20.900;2022-08-23T09:42:35;21.10;99.90
50544;DHT22;41176;44.032;20.900;2022-08-23T09:48:02;21.20;99.90
50544;DHT22;41176;44.032;20.900;2022-08-23T09:50:31;21.30;99.90
50544;DHT22;41176;44.032;20.900;2022-08-23T09:52:59;21.30;99.90
50544;DHT22;41176;44.032;20.900;2022-08-23T09:55:33;21.20;99.90
50544;DHT22;41176;44.032;20.900;2022-08-23T09:58:01;21.20;99.90
50544;DHT22;41176;44.032;20.900;2022-08-23T10:00:35;21.20;99.90
50544;DHT22;41176;44.032;20.900;2022-08-23T10:03:27;21.10;99.90
50544;DHT22;41176;44.032;20.900;2022-08-23T10:06:02;21.10;99.90
50544;DHT22;41176;44.032;20.900;2022-08-23T10:08:31;21.20;99.90
50544;DHT22;41176;44.032;20.900;2022-08-23T10:11:17;21.10;99.90
50544;DHT22;41176;44.032;20.900;2022-08-23T10:13:44;21.20;99.90
50544;DHT22;41176;44.032;20.900;2022-08-23T10:16:47;21.20;99.90
50544;DHT22;41176;44.032;20.900;2022-08-23T10:21:44;21.30;99.90
50544;DHT22;41176;44.032;20.900;2022-08-23T10:30:06;21.30;99.90
50544;DHT22;41176;44.032;20.900;2022-08-23T10:35:42;21.30;99.90
50544;DHT22;41176;44.032;20.900;2022-08-23T10:38:32;21.40;99.90
50544;DHT22;41176;44.032;20.900;2022-08-23T10:43:57;21.60;99.90
50544;DHT22;41176;44.032;20.900;2022-08-23T10:46:29;21.70;99.90
50544;DHT22;41176;44.032;20.900;2022-08-23T10:48:59;21.60;99.90
50544;DHT22;41176;44.032;20.900;2022-08-23T10:51:36;21.70;99.90
50544;DHT22;41176;44.032;20.900;2022-08-23T10:54:09;21.60;99.90
50544;DHT22;41176;44.032;20.900;2022-08-23T10:56:37;21.60;99.90
50544;DHT22;41176;44.032;20.900;2022-08-23T10:59:13;21.50;99.90
50544;DHT22;41176;44.032;20.900;2022-08-23T11:02:02;21.40;99.90
50544;DHT22;41176;44.032;20.900;2022-08-23T11:05:04;21.30;99.90
50544;DHT22;41176;44.032;20.900;2022-08-23T11:07:38;21.30;99.90
50544;DHT22;41176;44.032;20.900;2022-08-23T11:13:20;21.20;99.90
50544;DHT22;41176;44.032;20.900;2022-08-23T11:21:00;21.10;99.90
50544;DHT22;41176;44.032;20.900;2022-08-23T14:28:15;22.70;99.90
50544;DHT22;41176;44.032;20.900;2022-08-23T16:15:38;21.80;99.90
50544;DHT22;41176;44.032;20.900;2022-08-23T16:18:05;21.80;99.90
50544;DHT22;41176;44.032;20.900;2022-08-23T16:27:37;21.80;99.90
50544;DHT22;41176;44.032;20.900;2022-08-23T16:30:05;21.80;99.90
50544;DHT22;41176;44.032;20.900;2022-08-23T16:32:34;21.70;99.90
50544;DHT22;41176;44.032;20.900;2022-08-23T16:35:01;21.70;99.90
50544;DHT22;41176;44.032;20.900;2022-08-23T16:37:26;21.70;99.90
50544;DHT22;41176;44.032;20.900;2022-08-23T16:39:52;21.70;99.90
50544;DHT22;41176;44.032;20.900;2022-08-23T16:42:18;21.60;99.90
50544;DHT22;41176;44.032;20.900;2022-08-23T16:44:44;21.50;99.90
50544;DHT22;41176;44.032;20.900;2022-08-23T16:47:10;21.50;99.90
50544;DHT22;41176;44.032;20.900;2022-08-23T16:49:37;21.50;99.90
50544;DHT22;41176;44.032;20.900;2022-08-23T16:52:03;21.50;99.90
50544;DHT22;41176;44.032;20.900;2022-08-23T16:54:30;21.50;99.90
50544;DHT22;41176;44.032;20.900;2022-08-23T16:56:56;21.40;99.90
50544;DHT22;41176;44.032;20.900;2022-08-23T16:59:22;21.40;99.90
50544;DHT22;41176;44.032;20.900;2022-08-23T17:01:57;21.50;99.90
50544;DHT22;41176;44.032;20.900;2022-08-23T17:04:25;21.40;99.90
50544;DHT22;41176;44.032;20.900;2022-08-23T17:06:52;21.40;99.90
50544;DHT22;41176;44.032;20.900;2022-08-23T17:09:23;21.40;99.90
50544;DHT22;41176;44.032;20.900;2022-08-23T17:11:50;21.30;99.90
50544;DHT22;41176;44.032;20.900;2022-08-23T17:14:17;21.30;99.90
50544;DHT22;41176;44.032;20.900;2022-08-23T17:16:43;21.30;99.90
50544;DHT22;41176;44.032;20.900;2022-08-23T17:19:11;21.20;99.90
50544;DHT22;41176;44.032;20.900;2022-08-23T17:21:37;21.10;99.90
50544;DHT22;41176;44.032;20.900;2022-08-23T17:24:04;21.10;99.90
50544;DHT22;41176;44.032;20.900;2022-08-23T17:26:30;21.10;99.90
50544;DHT22;41176;44.032;20.900;2022-08-23T17:28:56;21.10;99.90
50544;DHT22;41176;44.032;20.900;2022-08-23T17:31:22;21.10;99.90
50544;DHT22;41176;44.032;20.900;2022-08-23T17:33:48;21.10;99.90
50544;DHT22;41176;44.032;20.900;2022-08-23T17:36:40;21.10;99.90
50544;DHT22;41176;44.032;20.900;2022-08-23T17:39:10;21.10;99.90
50544;DHT22;41176;44.032;20.900;2022-08-23T17:41:36;21.00;99.90
50544;DHT22;41176;44.032;20.900;2022-08-23T17:44:03;21.00;99.90
50544;DHT22;41176;44.032;20.900;2022-08-23T17:46:34;21.00;99.90
50544;DHT22;41176;44.032;20.900;2022-08-23T17:49:00;21.00;99.90
50544;DHT22;41176;44.032;20.900;2022-08-23T17:51:26;21.00;99.90
50544;DHT22;41176;44.032;20.900;2022-08-23T17:53:54;20.90;99.90
50544;DHT22;41176;44.032;20.900;2022-08-23T17:56:21;20.90;99.90
50544;DHT22;41176;44.032;20.900;2022-08-23T17:58:47;20.90;99.90
50544;DHT22;41176;44.032;20.900;2022-08-23T18:18:04;20.80;99.90
50544;DHT22;41176;44.032;20.900;2022-08-23T19:51:53;20.80;99.90
50544;DHT22;41176;44.032;20.900;2022-08-23T19:54:49;20.90;99.90
50544;DHT22;41176;44.032;20.900;2022-08-23T19:58:04;20.90;99.90
50544;DHT22;41176;44.032;20.900;2022-08-23T20:13:55;20.90;99.90
50544;DHT22;41176;44.032;20.900;2022-08-23T20:16:21;20.80;99.90
50544;DHT22;41176;44.032;20.900;2022-08-23T20:55:48;20.80;99.90
50544;DHT22;41176;44.032;20.900;2022-08-23T20:58:14;20.80;99.90
50544;DHT22;41176;44.032;20.900;2022-08-23T21:00:40;20.80;99.90
50544;DHT22;41176;44.032;20.900;2022-08-23T21:03:08;20.80;99.90
50544;DHT22;41176;44.032;20.900;2022-08-23T21:05:57;20.80;99.90
50544;DHT22;41176;44.032;20.900;2022-08-23T21:08:25;20.70;99.90
50544;DHT22;41176;44.032;20.900;2022-08-23T21:10:51;20.80;99.90
50544;DHT22;41176;44.032;20.900;2022-08-23T21:13:19;20.70;99.90
50544;DHT22;41176;44.032;20.900;2022-08-23T21:15:45;20.70;99.90
50544;DHT22;41176;44.032;20.900;2022-08-23T21:18:11;20.70;99.90
50544;DHT22;41176;44.032;20.900;2022-08-23T21:20:36;20.60;99.90
50544;DHT22;41176;44.032;20.900;2022-08-23T21:33:33;20.70;99.90
50544;DHT22;41176;44.032;20.900;2022-08-23T21:35:59;20.70;99.90
50544;DHT22;41176;44.032;20.900;2022-08-23T21:38:34;20.70;99.90
50544;DHT22;41176;44.032;20.900;2022-08-23T21:41:02;20.70;99.90
50544;DHT22;41176;44.032;20.900;2022-08-23T21:47:16;20.70;99.90
50544;DHT22;41176;44.032;20.900;2022-08-23T21:49:48;20.70;99.90
50544;DHT22;41176;44.032;20.900;2022-08-23T22:36:20;20.60;99.90
50544;DHT22;41176;44.032;20.900;2022-08-23T22:46:16;20.50;99.90
50544;DHT22;41176;44.032;20.900;2022-08-23T23:19:06;20.50;99.90
50544;DHT22;41176;44.032;20.900;2022-08-23T23:39:09;20.50;99.90
50544;DHT22;41176;44.032;20.900;2022-08-23T23:41:37;20.50;99.90
50544;DHT22;41176;44.032;20.900;2022-08-23T23:47:36;20.40;99.90
50544;DHT22;41176;44.032;20.900;2022-08-23T23:56:33;20.40;99.90
